sensor_id;sensor_type;location;lat;lon;timestamp;temperature;humidity
30865;DHT22;17574;49.418;11.038;2022-08-21T00:00:12;18.50;82.30
30865;DHT22;17574;49.418;11.038;2022-08-21T00:02:53;18.50;83.20
30865;DHT22;17574;49.418;11.038;2022-08-21T00:05:21;18.50;83.50
30865;DHT22;17574;49.418;11.038;2022-08-21T00:07:47;18.50;84.10
30865;DHT22;17574;49.418;11.038;2022-08-21T00:10:14;18.40;83.60
30865;DHT22;17574;49.418;11.038;2022-08-21T00:12:41;18.40;83.70
30865;DHT22;17574;49.418;11.038;2022-08-21T00:15:09;18.30;83.70
30865;DHT22;17574;49.418;11.038;2022-08-21T00:17:37;18.30;83.40
30865;DHT22;17574;49.418;11.038;2022-08-21T00:20:05;18.30;83.50
30865;DHT22;17574;49.418;11.038;2022-08-21T00:22:32;18.30;83.10
30865;DHT22;17574;49.418;11.038;2022-08-21T00:24:59;18.30;83.50
30865;DHT22;17574;49.418;11.038;2022-08-21T00:27:25;18.20;82.50
30865;DHT22;17574;49.418;11.038;2022-08-21T00:29:52;18.20;82.40
30865;DHT22;17574;49.418;11.038;2022-08-21T00:32:21;18.20;81.90
30865;DHT22;17574;49.418;11.038;2022-08-21T00:34:47;18.20;82.60
30865;DHT22;17574;49.418;11.038;2022-08-21T00:37:14;18.10;81.90
30865;DHT22;17574;49.418;11.038;2022-08-21T00:39:41;18.10;82.70
30865;DHT22;17574;49.418;11.038;2022-08-21T00:42:08;18.00;84.30
30865;DHT22;17574;49.418;11.038;2022-08-21T00:44:35;18.00;84.30
30865;DHT22;17574;49.418;11.038;2022-08-21T00:47:02;18.00;85.20
30865;DHT22;17574;49.418;11.038;2022-08-21T00:49:29;18.00;84.30
30865;DHT22;17574;49.418;11.038;2022-08-21T00:51:57;17.90;84.20
30865;DHT22;17574;49.418;11.038;2022-08-21T00:54:25;17.90;84.20
30865;DHT22;17574;49.418;11.038;2022-08-21T00:56:54;17.90;84.40
30865;DHT22;17574;49.418;11.038;2022-08-21T00:59:24;17.90;86.00
30865;DHT22;17574;49.418;11.038;2022-08-21T01:01:51;17.90;86.20
30865;DHT22;17574;49.418;11.038;2022-08-21T01:04:19;17.80;85.10
30865;DHT22;17574;49.418;11.038;2022-08-21T01:06:46;17.80;85.80
30865;DHT22;17574;49.418;11.038;2022-08-21T01:09:13;17.80;85.10
30865;DHT22;17574;49.418;11.038;2022-08-21T01:11:40;17.80;84.10
30865;DHT22;17574;49.418;11.038;2022-08-21T01:14:09;17.80;84.10
30865;DHT22;17574;49.418;11.038;2022-08-21T01:16:39;17.80;84.10
30865;DHT22;17574;49.418;11.038;2022-08-21T01:19:06;17.70;84.80
30865;DHT22;17574;49.418;11.038;2022-08-21T01:21:34;17.70;85.60
30865;DHT22;17574;49.418;11.038;2022-08-21T01:24:01;17.70;86.00
30865;DHT22;17574;49.418;11.038;2022-08-21T01:26:29;17.70;86.60
30865;DHT22;17574;49.418;11.038;2022-08-21T01:29:05;17.70;88.10
30865;DHT22;17574;49.418;11.038;2022-08-21T01:31:33;17.70;87.90
30865;DHT22;17574;49.418;11.038;2022-08-21T01:34:00;17.60;86.90
30865;DHT22;17574;49.418;11.038;2022-08-21T01:36:26;17.60;86.80
30865;DHT22;17574;49.418;11.038;2022-08-21T01:38:53;17.60;86.90
30865;DHT22;17574;49.418;11.038;2022-08-21T01:41:20;17.70;87.70
30865;DHT22;17574;49.418;11.038;2022-08-21T01:43:46;17.60;87.40
30865;DHT22;17574;49.418;11.038;2022-08-21T01:46:13;17.60;87.30
30865;DHT22;17574;49.418;11.038;2022-08-21T01:48:40;17.60;87.40
30865;DHT22;17574;49.418;11.038;2022-08-21T01:51:07;17.60;87.90
30865;DHT22;17574;49.418;11.038;2022-08-21T01:53:34;17.60;88.30
30865;DHT22;17574;49.418;11.038;2022-08-21T01:56:04;17.60;88.40
30865;DHT22;17574;49.418;11.038;2022-08-21T01:58:37;17.60;88.10
30865;DHT22;17574;49.418;11.038;2022-08-21T02:01:04;17.50;87.40
30865;DHT22;17574;49.418;11.038;2022-08-21T02:03:30;17.50;87.20
30865;DHT22;17574;49.418;11.038;2022-08-21T02:06:02;17.50;86.80
30865;DHT22;17574;49.418;11.038;2022-08-21T02:08:29;17.50;87.30
30865;DHT22;17574;49.418;11.038;2022-08-21T02:10:55;17.50;87.30
30865;DHT22;17574;49.418;11.038;2022-08-21T02:13:22;17.50;86.60
30865;DHT22;17574;49.418;11.038;2022-08-21T02:15:49;17.40;84.90
30865;DHT22;17574;49.418;11.038;2022-08-21T02:18:15;17.40;84.60
30865;DHT22;17574;49.418;11.038;2022-08-21T02:20:45;17.30;85.90
30865;DHT22;17574;49.418;11.038;2022-08-21T02:23:12;17.30;87.20
30865;DHT22;17574;49.418;11.038;2022-08-21T02:25:39;17.30;88.00
30865;DHT22;17574;49.418;11.038;2022-08-21T02:28:08;17.30;88.40
30865;DHT22;17574;49.418;11.038;2022-08-21T02:30:37;17.30;88.10
30865;DHT22;17574;49.418;11.038;2022-08-21T02:33:04;17.30;87.40
30865;DHT22;17574;49.418;11.038;2022-08-21T02:35:31;17.20;87.60
30865;DHT22;17574;49.418;11.038;2022-08-21T02:37:59;17.20;88.60
30865;DHT22;17574;49.418;11.038;2022-08-21T02:40:29;17.20;89.30
30865;DHT22;17574;49.418;11.038;2022-08-21T02:42:57;17.20;89.80
30865;DHT22;17574;49.418;11.038;2022-08-21T02:45:24;17.20;90.80
30865;DHT22;17574;49.418;11.038;2022-08-21T02:47:54;17.10;90.70
30865;DHT22;17574;49.418;11.038;2022-08-21T02:50:25;17.20;90.80
30865;DHT22;17574;49.418;11.038;2022-08-21T02:52:52;17.20;90.80
30865;DHT22;17574;49.418;11.038;2022-08-21T02:55:24;17.10;91.10
30865;DHT22;17574;49.418;11.038;2022-08-21T02:57:53;17.20;91.10
30865;DHT22;17574;49.418;11.038;2022-08-21T03:00:20;17.20;90.80
30865;DHT22;17574;49.418;11.038;2022-08-21T03:02:47;17.20;90.80
30865;DHT22;17574;49.418;11.038;2022-08-21T03:05:14;17.20;90.80
30865;DHT22;17574;49.418;11.038;2022-08-21T03:07:42;17.20;90.80
30865;DHT22;17574;49.418;11.038;2022-08-21T03:10:09;17.20;90.40
30865;DHT22;17574;49.418;11.038;2022-08-21T03:12:36;17.20;89.60
30865;DHT22;17574;49.418;11.038;2022-08-21T03:15:03;17.20;89.00
30865;DHT22;17574;49.418;11.038;2022-08-21T03:17:30;17.10;88.40
30865;DHT22;17574;49.418;11.038;2022-08-21T03:19:57;17.10;88.10
30865;DHT22;17574;49.418;11.038;2022-08-21T03:22:24;16.90;87.40
30865;DHT22;17574;49.418;11.038;2022-08-21T03:24:52;17.10;87.80
30865;DHT22;17574;49.418;11.038;2022-08-21T03:27:19;17.00;88.00
30865;DHT22;17574;49.418;11.038;2022-08-21T03:29:48;17.00;88.10
30865;DHT22;17574;49.418;11.038;2022-08-21T03:32:14;17.00;88.70
30865;DHT22;17574;49.418;11.038;2022-08-21T03:34:41;17.00;90.00
30865;DHT22;17574;49.418;11.038;2022-08-21T03:37:08;17.00;90.70
30865;DHT22;17574;49.418;11.038;2022-08-21T03:39:36;17.00;90.70
30865;DHT22;17574;49.418;11.038;2022-08-21T03:42:03;17.00;91.90
30865;DHT22;17574;49.418;11.038;2022-08-21T03:44:31;17.00;92.40
30865;DHT22;17574;49.418;11.038;2022-08-21T03:46:57;17.00;92.70
30865;DHT22;17574;49.418;11.038;2022-08-21T03:49:24;17.00;93.10
30865;DHT22;17574;49.418;11.038;2022-08-21T03:51:51;17.00;93.90
30865;DHT22;17574;49.418;11.038;2022-08-21T03:54:25;17.00;94.30
30865;DHT22;17574;49.418;11.038;2022-08-21T03:56:54;17.10;94.30
30865;DHT22;17574;49.418;11.038;2022-08-21T03:59:21;17.10;94.30
30865;DHT22;17574;49.418;11.038;2022-08-21T04:01:51;17.00;94.30
30865;DHT22;17574;49.418;11.038;2022-08-21T04:04:18;17.10;94.30
30865;DHT22;17574;49.418;11.038;2022-08-21T04:06:45;17.10;94.30
30865;DHT22;17574;49.418;11.038;2022-08-21T04:09:12;17.00;94.30
30865;DHT22;17574;49.418;11.038;2022-08-21T04:11:39;17.10;94.30
30865;DHT22;17574;49.418;11.038;2022-08-21T04:14:05;17.10;94.30
30865;DHT22;17574;49.418;11.038;2022-08-21T04:16:32;17.00;94.30
30865;DHT22;17574;49.418;11.038;2022-08-21T04:18:58;17.10;94.30
30865;DHT22;17574;49.418;11.038;2022-08-21T04:21:25;17.00;94.50
30865;DHT22;17574;49.418;11.038;2022-08-21T04:23:56;17.10;94.30
30865;DHT22;17574;49.418;11.038;2022-08-21T04:26:22;17.10;94.60
30865;DHT22;17574;49.418;11.038;2022-08-21T04:28:49;17.00;94.30
30865;DHT22;17574;49.418;11.038;2022-08-21T04:31:16;17.10;94.30
30865;DHT22;17574;49.418;11.038;2022-08-21T04:33:42;17.10;94.30
30865;DHT22;17574;49.418;11.038;2022-08-21T04:36:09;17.10;94.30
30865;DHT22;17574;49.418;11.038;2022-08-21T04:38:36;17.10;94.30
30865;DHT22;17574;49.418;11.038;2022-08-21T04:41:03;17.10;94.30
30865;DHT22;17574;49.418;11.038;2022-08-21T04:43:31;17.10;94.30
30865;DHT22;17574;49.418;11.038;2022-08-21T04:45:58;17.10;94.30
30865;DHT22;17574;49.418;11.038;2022-08-21T04:48:26;17.10;94.30
30865;DHT22;17574;49.418;11.038;2022-08-21T04:53:22;17.20;94.40
30865;DHT22;17574;49.418;11.038;2022-08-21T04:55:50;17.20;94.40
30865;DHT22;17574;49.418;11.038;2022-08-21T04:58:18;17.20;94.40
30865;DHT22;17574;49.418;11.038;2022-08-21T05:00:47;17.20;94.60
30865;DHT22;17574;49.418;11.038;2022-08-21T05:03:14;17.20;93.90
30865;DHT22;17574;49.418;11.038;2022-08-21T05:05:42;17.20;94.30
30865;DHT22;17574;49.418;11.038;2022-08-21T05:08:11;17.30;94.50
30865;DHT22;17574;49.418;11.038;2022-08-21T05:10:38;17.30;94.10
30865;DHT22;17574;49.418;11.038;2022-08-21T05:13:05;17.40;93.90
30865;DHT22;17574;49.418;11.038;2022-08-21T05:15:32;17.40;94.00
30865;DHT22;17574;49.418;11.038;2022-08-21T05:17:59;17.30;93.90
30865;DHT22;17574;49.418;11.038;2022-08-21T05:20:27;17.40;93.50
30865;DHT22;17574;49.418;11.038;2022-08-21T05:22:54;17.30;93.50
30865;DHT22;17574;49.418;11.038;2022-08-21T05:25:21;17.40;93.40
30865;DHT22;17574;49.418;11.038;2022-08-21T05:27:49;17.40;93.10
30865;DHT22;17574;49.418;11.038;2022-08-21T05:30:18;17.30;93.00
30865;DHT22;17574;49.418;11.038;2022-08-21T05:32:45;17.40;92.90
30865;DHT22;17574;49.418;11.038;2022-08-21T05:35:12;17.50;92.40
30865;DHT22;17574;49.418;11.038;2022-08-21T05:37:38;17.50;92.60
30865;DHT22;17574;49.418;11.038;2022-08-21T05:40:05;17.50;92.70
30865;DHT22;17574;49.418;11.038;2022-08-21T05:42:52;17.60;92.60
30865;DHT22;17574;49.418;11.038;2022-08-21T05:45:22;17.60;91.90
30865;DHT22;17574;49.418;11.038;2022-08-21T05:48:14;17.50;91.90
30865;DHT22;17574;49.418;11.038;2022-08-21T05:50:41;17.60;91.50
30865;DHT22;17574;49.418;11.038;2022-08-21T05:53:09;17.70;91.00
30865;DHT22;17574;49.418;11.038;2022-08-21T05:55:36;17.70;91.30
30865;DHT22;17574;49.418;11.038;2022-08-21T05:58:11;17.70;91.00
30865;DHT22;17574;49.418;11.038;2022-08-21T06:00:38;17.80;91.00
30865;DHT22;17574;49.418;11.038;2022-08-21T06:03:09;17.90;90.30
30865;DHT22;17574;49.418;11.038;2022-08-21T06:05:36;17.90;90.00
30865;DHT22;17574;49.418;11.038;2022-08-21T06:08:03;17.90;89.40
30865;DHT22;17574;49.418;11.038;2022-08-21T06:10:30;18.00;89.40
30865;DHT22;17574;49.418;11.038;2022-08-21T06:12:57;18.10;89.00
30865;DHT22;17574;49.418;11.038;2022-08-21T06:15:24;18.00;88.40
30865;DHT22;17574;49.418;11.038;2022-08-21T06:17:52;18.00;87.90
30865;DHT22;17574;49.418;11.038;2022-08-21T06:20:18;18.10;88.50
30865;DHT22;17574;49.418;11.038;2022-08-21T06:22:45;18.10;87.80
30865;DHT22;17574;49.418;11.038;2022-08-21T06:25:12;18.10;87.10
30865;DHT22;17574;49.418;11.038;2022-08-21T06:27:39;18.20;87.10
30865;DHT22;17574;49.418;11.038;2022-08-21T06:30:06;18.30;86.70
30865;DHT22;17574;49.418;11.038;2022-08-21T06:32:32;18.30;86.50
30865;DHT22;17574;49.418;11.038;2022-08-21T06:34:59;18.30;85.90
30865;DHT22;17574;49.418;11.038;2022-08-21T06:37:26;18.40;84.60
30865;DHT22;17574;49.418;11.038;2022-08-21T06:39:53;18.40;84.60
30865;DHT22;17574;49.418;11.038;2022-08-21T06:42:20;18.40;83.30
30865;DHT22;17574;49.418;11.038;2022-08-21T06:44:53;18.30;82.80
30865;DHT22;17574;49.418;11.038;2022-08-21T06:47:20;18.50;82.90
30865;DHT22;17574;49.418;11.038;2022-08-21T06:49:46;18.50;81.50
30865;DHT22;17574;49.418;11.038;2022-08-21T06:52:13;18.50;82.00
30865;DHT22;17574;49.418;11.038;2022-08-21T06:54:40;18.60;81.90
30865;DHT22;17574;49.418;11.038;2022-08-21T06:57:06;18.60;79.70
30865;DHT22;17574;49.418;11.038;2022-08-21T06:59:33;18.70;79.10
30865;DHT22;17574;49.418;11.038;2022-08-21T07:02:00;18.70;79.30
30865;DHT22;17574;49.418;11.038;2022-08-21T07:04:26;18.80;79.10
30865;DHT22;17574;49.418;11.038;2022-08-21T07:06:53;18.60;80.50
30865;DHT22;17574;49.418;11.038;2022-08-21T07:09:20;18.60;80.40
30865;DHT22;17574;49.418;11.038;2022-08-21T07:11:52;18.60;81.00
30865;DHT22;17574;49.418;11.038;2022-08-21T07:14:19;18.60;81.30
30865;DHT22;17574;49.418;11.038;2022-08-21T07:16:46;18.70;80.20
30865;DHT22;17574;49.418;11.038;2022-08-21T07:19:13;18.80;80.90
30865;DHT22;17574;49.418;11.038;2022-08-21T07:21:40;19.00;80.10
30865;DHT22;17574;49.418;11.038;2022-08-21T07:24:06;19.00;79.20
30865;DHT22;17574;49.418;11.038;2022-08-21T07:26:33;19.00;76.70
30865;DHT22;17574;49.418;11.038;2022-08-21T07:29:00;18.90;76.60
30865;DHT22;17574;49.418;11.038;2022-08-21T07:31:27;18.90;76.60
30865;DHT22;17574;49.418;11.038;2022-08-21T07:33:53;19.00;76.70
30865;DHT22;17574;49.418;11.038;2022-08-21T07:36:20;19.00;76.70
30865;DHT22;17574;49.418;11.038;2022-08-21T07:38:47;19.10;73.40
30865;DHT22;17574;49.418;11.038;2022-08-21T07:41:25;19.20;74.00
30865;DHT22;17574;49.418;11.038;2022-08-21T07:43:52;19.30;71.70
30865;DHT22;17574;49.418;11.038;2022-08-21T07:46:19;19.40;71.40
30865;DHT22;17574;49.418;11.038;2022-08-21T07:48:45;19.50;68.30
30865;DHT22;17574;49.418;11.038;2022-08-21T07:51:13;19.60;68.40
30865;DHT22;17574;49.418;11.038;2022-08-21T07:53:40;19.80;69.50
30865;DHT22;17574;49.418;11.038;2022-08-21T07:56:07;19.80;67.60
30865;DHT22;17574;49.418;11.038;2022-08-21T07:58:34;19.90;65.30
30865;DHT22;17574;49.418;11.038;2022-08-21T08:01:01;19.90;66.30
30865;DHT22;17574;49.418;11.038;2022-08-21T08:03:28;20.00;66.50
30865;DHT22;17574;49.418;11.038;2022-08-21T08:05:55;20.10;66.70
30865;DHT22;17574;49.418;11.038;2022-08-21T08:08:22;20.20;64.30
30865;DHT22;17574;49.418;11.038;2022-08-21T08:10:48;20.30;64.30
30865;DHT22;17574;49.418;11.038;2022-08-21T08:13:16;20.40;60.00
30865;DHT22;17574;49.418;11.038;2022-08-21T08:15:43;20.40;60.00
30865;DHT22;17574;49.418;11.038;2022-08-21T08:18:09;20.50;59.30
30865;DHT22;17574;49.418;11.038;2022-08-21T08:20:36;20.40;60.00
30865;DHT22;17574;49.418;11.038;2022-08-21T08:23:02;20.40;60.00
30865;DHT22;17574;49.418;11.038;2022-08-21T08:25:29;20.50;58.00
30865;DHT22;17574;49.418;11.038;2022-08-21T08:28:02;20.70;55.00
30865;DHT22;17574;49.418;11.038;2022-08-21T08:30:41;20.80;56.90
30865;DHT22;17574;49.418;11.038;2022-08-21T08:33:08;20.80;52.50
30865;DHT22;17574;49.418;11.038;2022-08-21T08:35:35;20.80;52.20
30865;DHT22;17574;49.418;11.038;2022-08-21T08:38:04;20.80;51.20
30865;DHT22;17574;49.418;11.038;2022-08-21T08:40:34;20.90;51.60
30865;DHT22;17574;49.418;11.038;2022-08-21T08:43:08;21.10;49.90
30865;DHT22;17574;49.418;11.038;2022-08-21T08:45:40;21.10;49.90
30865;DHT22;17574;49.418;11.038;2022-08-21T08:48:10;21.20;47.10
30865;DHT22;17574;49.418;11.038;2022-08-21T08:50:57;21.30;44.50
30865;DHT22;17574;49.418;11.038;2022-08-21T08:53:28;21.30;44.50
30865;DHT22;17574;49.418;11.038;2022-08-21T08:55:56;21.50;42.40
30865;DHT22;17574;49.418;11.038;2022-08-21T09:00:51;21.60;39.20
30865;DHT22;17574;49.418;11.038;2022-08-21T09:03:18;21.70;40.10
30865;DHT22;17574;49.418;11.038;2022-08-21T09:05:48;21.90;37.30
30865;DHT22;17574;49.418;11.038;2022-08-21T09:18:46;22.80;26.20
30865;DHT22;17574;49.418;11.038;2022-08-21T09:21:26;23.10;24.60
30865;DHT22;17574;49.418;11.038;2022-08-21T09:24:17;23.40;20.10
30865;DHT22;17574;49.418;11.038;2022-08-21T09:29:21;23.90;19.80
30865;DHT22;17574;49.418;11.038;2022-08-21T09:31:49;24.50;13.40
30865;DHT22;17574;49.418;11.038;2022-08-21T09:34:23;25.00;11.50
30865;DHT22;17574;49.418;11.038;2022-08-21T09:36:50;25.30;9.50
30865;DHT22;17574;49.418;11.038;2022-08-21T09:39:25;25.60;6.80
30865;DHT22;17574;49.418;11.038;2022-08-21T09:41:59;25.80;6.30
30865;DHT22;17574;49.418;11.038;2022-08-21T09:44:28;25.90;4.50
30865;DHT22;17574;49.418;11.038;2022-08-21T09:46:55;26.00;2.70
30865;DHT22;17574;49.418;11.038;2022-08-21T09:49:29;26.40;1.00
30865;DHT22;17574;49.418;11.038;2022-08-21T09:51:56;27.60;1.00
30865;DHT22;17574;49.418;11.038;2022-08-21T09:54:26;28.80;1.00
30865;DHT22;17574;49.418;11.038;2022-08-21T09:56:54;29.30;1.00
30865;DHT22;17574;49.418;11.038;2022-08-21T09:59:40;29.50;1.00
30865;DHT22;17574;49.418;11.038;2022-08-21T10:02:19;29.20;1.00
30865;DHT22;17574;49.418;11.038;2022-08-21T10:04:51;28.90;1.00
30865;DHT22;17574;49.418;11.038;2022-08-21T10:07:19;28.60;1.00
30865;DHT22;17574;49.418;11.038;2022-08-21T10:09:57;28.70;1.00
30865;DHT22;17574;49.418;11.038;2022-08-21T10:12:26;30.00;1.00
30865;DHT22;17574;49.418;11.038;2022-08-21T10:15:44;31.70;1.00
30865;DHT22;17574;49.418;11.038;2022-08-21T10:26:12;35.80;1.00
30865;DHT22;17574;49.418;11.038;2022-08-21T10:28:57;36.30;1.00
30865;DHT22;17574;49.418;11.038;2022-08-21T10:36:42;37.00;1.00
30865;DHT22;17574;49.418;11.038;2022-08-21T10:39:17;37.80;1.00
30865;DHT22;17574;49.418;11.038;2022-08-21T10:48:02;39.20;1.00
30865;DHT22;17574;49.418;11.038;2022-08-21T10:50:44;39.50;1.00
30865;DHT22;17574;49.418;11.038;2022-08-21T10:55:41;38.60;1.00
30865;DHT22;17574;49.418;11.038;2022-08-21T10:58:11;39.90;1.00
30865;DHT22;17574;49.418;11.038;2022-08-21T11:00:46;40.20;1.00
30865;DHT22;17574;49.418;11.038;2022-08-21T11:03:14;40.10;1.00
30865;DHT22;17574;49.418;11.038;2022-08-21T11:05:45;39.60;1.00
30865;DHT22;17574;49.418;11.038;2022-08-21T11:08:24;39.90;1.00
30865;DHT22;17574;49.418;11.038;2022-08-21T11:13:55;38.40;1.00
30865;DHT22;17574;49.418;11.038;2022-08-21T11:19:07;36.30;1.00
30865;DHT22;17574;49.418;11.038;2022-08-21T11:21:46;37.10;1.00
30865;DHT22;17574;49.418;11.038;2022-08-21T11:24:37;37.50;1.00
30865;DHT22;17574;49.418;11.038;2022-08-21T11:27:14;37.70;1.00
30865;DHT22;17574;49.418;11.038;2022-08-21T11:29:44;38.20;1.00
30865;DHT22;17574;49.418;11.038;2022-08-21T11:35:09;38.40;1.00
30865;DHT22;17574;49.418;11.038;2022-08-21T11:42:55;38.90;1.00
30865;DHT22;17574;49.418;11.038;2022-08-21T11:46:09;38.80;1.00
30865;DHT22;17574;49.418;11.038;2022-08-21T11:50:54;39.20;1.00
30865;DHT22;17574;49.418;11.038;2022-08-21T11:53:28;39.40;1.00
30865;DHT22;17574;49.418;11.038;2022-08-21T11:55:56;39.00;1.00
30865;DHT22;17574;49.418;11.038;2022-08-21T11:58:31;38.80;1.00
30865;DHT22;17574;49.418;11.038;2022-08-21T12:01:20;38.70;1.00
30865;DHT22;17574;49.418;11.038;2022-08-21T12:06:30;38.30;1.00
30865;DHT22;17574;49.418;11.038;2022-08-21T12:08:59;38.20;1.00
30865;DHT22;17574;49.418;11.038;2022-08-21T12:11:26;38.20;1.00
30865;DHT22;17574;49.418;11.038;2022-08-21T12:13:58;38.30;1.00
30865;DHT22;17574;49.418;11.038;2022-08-21T12:16:39;38.60;1.00
30865;DHT22;17574;49.418;11.038;2022-08-21T12:19:07;38.20;1.00
30865;DHT22;17574;49.418;11.038;2022-08-21T12:21:34;38.10;1.00
30865;DHT22;17574;49.418;11.038;2022-08-21T12:26:53;38.40;1.00
30865;DHT22;17574;49.418;11.038;2022-08-21T12:31:56;38.60;1.00
30865;DHT22;17574;49.418;11.038;2022-08-21T12:34:24;39.00;1.00
30865;DHT22;17574;49.418;11.038;2022-08-21T12:36:54;39.50;1.00
30865;DHT22;17574;49.418;11.038;2022-08-21T12:39:24;39.90;1.00
30865;DHT22;17574;49.418;11.038;2022-08-21T12:42:05;40.10;1.00
30865;DHT22;17574;49.418;11.038;2022-08-21T12:44:35;40.00;1.00
30865;DHT22;17574;49.418;11.038;2022-08-21T12:47:03;39.80;1.00
30865;DHT22;17574;49.418;11.038;2022-08-21T12:49:32;39.20;1.00
30865;DHT22;17574;49.418;11.038;2022-08-21T12:54:40;38.50;1.00
30865;DHT22;17574;49.418;11.038;2022-08-21T12:57:08;38.60;1.00
30865;DHT22;17574;49.418;11.038;2022-08-21T12:59:37;39.20;1.00
30865;DHT22;17574;49.418;11.038;2022-08-21T13:02:14;39.40;1.00
30865;DHT22;17574;49.418;11.038;2022-08-21T13:04:43;39.70;1.00
30865;DHT22;17574;49.418;11.038;2022-08-21T13:07:12;40.20;1.00
30865;DHT22;17574;49.418;11.038;2022-08-21T13:09:47;40.30;1.00
30865;DHT22;17574;49.418;11.038;2022-08-21T13:12:15;39.90;1.00
30865;DHT22;17574;49.418;11.038;2022-08-21T13:14:43;38.90;1.00
30865;DHT22;17574;49.418;11.038;2022-08-21T13:17:14;39.50;1.00
30865;DHT22;17574;49.418;11.038;2022-08-21T13:20:05;39.70;1.00
30865;DHT22;17574;49.418;11.038;2022-08-21T13:22:32;40.20;1.00
30865;DHT22;17574;49.418;11.038;2022-08-21T13:25:13;39.60;1.00
30865;DHT22;17574;49.418;11.038;2022-08-21T13:27:42;39.10;1.00
30865;DHT22;17574;49.418;11.038;2022-08-21T13:30:27;39.10;1.00
30865;DHT22;17574;49.418;11.038;2022-08-21T13:32:58;39.00;1.00
30865;DHT22;17574;49.418;11.038;2022-08-21T13:37:52;38.70;1.00
30865;DHT22;17574;49.418;11.038;2022-08-21T13:40:20;38.80;1.00
30865;DHT22;17574;49.418;11.038;2022-08-21T13:42:49;38.80;1.00
30865;DHT22;17574;49.418;11.038;2022-08-21T13:45:21;38.70;1.00
30865;DHT22;17574;49.418;11.038;2022-08-21T13:47:48;38.90;1.00
30865;DHT22;17574;49.418;11.038;2022-08-21T13:50:16;38.60;1.00
30865;DHT22;17574;49.418;11.038;2022-08-21T13:52:49;37.90;1.00
30865;DHT22;17574;49.418;11.038;2022-08-21T13:55:17;36.60;1.00
30865;DHT22;17574;49.418;11.038;2022-08-21T13:57:44;35.10;1.00
30865;DHT22;17574;49.418;11.038;2022-08-21T14:02:45;33.20;1.00
30865;DHT22;17574;49.418;11.038;2022-08-21T14:05:20;33.00;1.00
30865;DHT22;17574;49.418;11.038;2022-08-21T14:07:47;32.90;1.00
30865;DHT22;17574;49.418;11.038;2022-08-21T14:10:20;33.30;1.00
30865;DHT22;17574;49.418;11.038;2022-08-21T14:12:55;33.60;1.00
30865;DHT22;17574;49.418;11.038;2022-08-21T14:15:23;33.60;1.00
30865;DHT22;17574;49.418;11.038;2022-08-21T14:17:51;33.90;1.00
30865;DHT22;17574;49.418;11.038;2022-08-21T14:20:29;34.30;1.00
30865;DHT22;17574;49.418;11.038;2022-08-21T14:22:57;34.30;1.00
30865;DHT22;17574;49.418;11.038;2022-08-21T14:27:51;33.60;1.00
30865;DHT22;17574;49.418;11.038;2022-08-21T14:30:27;33.80;1.00
30865;DHT22;17574;49.418;11.038;2022-08-21T14:32:55;33.80;1.00
30865;DHT22;17574;49.418;11.038;2022-08-21T14:35:21;33.80;1.00
30865;DHT22;17574;49.418;11.038;2022-08-21T14:37:50;34.10;1.00
30865;DHT22;17574;49.418;11.038;2022-08-21T14:40:18;34.50;1.00
30865;DHT22;17574;49.418;11.038;2022-08-21T14:42:45;34.40;1.00
30865;DHT22;17574;49.418;11.038;2022-08-21T14:47:39;34.20;1.00
30865;DHT22;17574;49.418;11.038;2022-08-21T14:50:06;34.20;1.00
30865;DHT22;17574;49.418;11.038;2022-08-21T14:52:32;34.20;1.00
30865;DHT22;17574;49.418;11.038;2022-08-21T14:54:59;33.90;1.00
30865;DHT22;17574;49.418;11.038;2022-08-21T14:57:26;33.50;1.00
30865;DHT22;17574;49.418;11.038;2022-08-21T14:59:54;33.40;1.00
30865;DHT22;17574;49.418;11.038;2022-08-21T15:02:27;33.00;1.00
30865;DHT22;17574;49.418;11.038;2022-08-21T15:04:53;33.20;1.00
30865;DHT22;17574;49.418;11.038;2022-08-21T15:07:20;32.80;1.00
30865;DHT22;17574;49.418;11.038;2022-08-21T15:09:46;32.60;1.00
30865;DHT22;17574;49.418;11.038;2022-08-21T15:12:13;32.10;1.00
30865;DHT22;17574;49.418;11.038;2022-08-21T15:14:40;32.10;1.00
30865;DHT22;17574;49.418;11.038;2022-08-21T15:17:08;32.30;1.00
30865;DHT22;17574;49.418;11.038;2022-08-21T15:19:35;32.30;1.00
30865;DHT22;17574;49.418;11.038;2022-08-21T15:22:02;32.20;1.00
30865;DHT22;17574;49.418;11.038;2022-08-21T15:24:29;31.90;1.00
30865;DHT22;17574;49.418;11.038;2022-08-21T15:26:56;31.90;1.00
30865;DHT22;17574;49.418;11.038;2022-08-21T15:29:25;31.70;1.00
30865;DHT22;17574;49.418;11.038;2022-08-21T15:32:18;31.70;1.00
30865;DHT22;17574;49.418;11.038;2022-08-21T15:34:45;31.50;1.00
30865;DHT22;17574;49.418;11.038;2022-08-21T15:37:12;31.40;1.00
30865;DHT22;17574;49.418;11.038;2022-08-21T15:39:39;31.20;1.00
30865;DHT22;17574;49.418;11.038;2022-08-21T15:42:07;31.10;1.00
30865;DHT22;17574;49.418;11.038;2022-08-21T15:44:37;31.10;1.00
30865;DHT22;17574;49.418;11.038;2022-08-21T15:47:05;30.90;1.00
30865;DHT22;17574;49.418;11.038;2022-08-21T15:49:32;30.90;1.00
30865;DHT22;17574;49.418;11.038;2022-08-21T15:51:58;31.00;1.00
30865;DHT22;17574;49.418;11.038;2022-08-21T15:54:25;30.90;1.00
30865;DHT22;17574;49.418;11.038;2022-08-21T15:56:52;30.60;1.00
30865;DHT22;17574;49.418;11.038;2022-08-21T15:59:20;30.60;1.00
30865;DHT22;17574;49.418;11.038;2022-08-21T16:01:49;30.40;1.00
30865;DHT22;17574;49.418;11.038;2022-08-21T16:04:19;30.40;1.00
30865;DHT22;17574;49.418;11.038;2022-08-21T16:06:46;30.20;1.00
30865;DHT22;17574;49.418;11.038;2022-08-21T16:09:21;30.20;1.00
30865;DHT22;17574;49.418;11.038;2022-08-21T16:11:48;30.20;1.00
30865;DHT22;17574;49.418;11.038;2022-08-21T16:14:15;30.10;1.00
30865;DHT22;17574;49.418;11.038;2022-08-21T16:16:42;29.90;1.00
30865;DHT22;17574;49.418;11.038;2022-08-21T16:19:09;29.90;1.00
30865;DHT22;17574;49.418;11.038;2022-08-21T16:21:36;29.80;1.00
30865;DHT22;17574;49.418;11.038;2022-08-21T16:24:03;29.80;1.00
30865;DHT22;17574;49.418;11.038;2022-08-21T16:26:30;29.70;1.00
30865;DHT22;17574;49.418;11.038;2022-08-21T16:28:59;29.50;1.00
30865;DHT22;17574;49.418;11.038;2022-08-21T16:31:26;29.40;1.00
30865;DHT22;17574;49.418;11.038;2022-08-21T16:33:54;29.30;1.00
30865;DHT22;17574;49.418;11.038;2022-08-21T16:36:23;29.30;1.00
30865;DHT22;17574;49.418;11.038;2022-08-21T16:38:52;29.10;1.00
30865;DHT22;17574;49.418;11.038;2022-08-21T16:41:20;29.00;1.00
30865;DHT22;17574;49.418;11.038;2022-08-21T16:43:47;28.80;1.00
30865;DHT22;17574;49.418;11.038;2022-08-21T16:46:15;28.70;1.00
30865;DHT22;17574;49.418;11.038;2022-08-21T16:48:42;28.50;1.00
30865;DHT22;17574;49.418;11.038;2022-08-21T16:51:12;28.30;1.00